logo dgac
Lunes 27 de Septiembre del 2021
Buscar por aerodromo o helipuerto
Ingrese nombre de aeródromo, localidad o designador OACI:
TAF: TAF SCEL 262200Z 2700/2724 20013KT CAVOK TX26/2718Z TN07/2710Z BECMG 2702/2704 24005KT TEMPO 2708/2712 6000 NSC BECMG 2716/2718 20012KT
TAF del 26/09/2021 a las 22:00 UTC
Para mayor información visite www.meteochile.cl
Período de validez: desde el 27 a las 00:00 UTC hasta el 27 a las 24:00 UTC
Viento: dirección 200 grados, velocidad 13 nudos
Visibilidad: 10 km o más,
    sin nubes bajo los 5.000 pies o bajo del MSA (Mínimo de Seguridad del Aeródromo),
    sin cumulonimbus, y sin fenómenos de tiempo significativo en el aeródromo o alrededores
Temperatura máxima: 26ºC el 27 a las 18:00 UTC
Temperatura mínima: 7ºC el 27 a las 10:00 UTC
Se espera un cambio entre las 02:00 UTC del 27 y las 04:00 UTC del 27, :
Viento: dirección 240 grados, velocidad 5 nudos
Se espera en forma temporal entre las 08:00 UTC del 27 y las 12:00 UTC del 27:
Visibilidad: 6000 metros
Sin nubes bajo los 5000 pies o bajo del MSA (Mínimo de Seguridad del Aeródromo)
Se espera un cambio entre las 16:00 UTC del 27 y las 18:00 UTC del 27, :
Viento: dirección 200 grados, velocidad 12 nudos